createdAt,value
2023-05-22T00:01:02.221Z,99112.47
2023-05-22T00:06:10.059Z,99103.75
2023-05-22T00:11:12.802Z,99108.63
2023-05-22T00:16:16.841Z,99102.63
2023-05-22T00:21:19.831Z,99097.69
2023-05-22T00:26:23.238Z,99098.16
2023-05-22T00:31:27.556Z,99093.81
2023-05-22T00:36:30.417Z,99088.91
2023-05-22T00:41:34.659Z,99085.03
2023-05-22T00:46:39.057Z,99084.19
2023-05-22T00:51:41.798Z,99094.44
2023-05-22T00:56:44.624Z,99091.16
2023-05-22T01:01:48.957Z,99078.38
2023-05-22T01:06:51.699Z,99078.59
2023-05-22T01:11:59.615Z,99076.16
2023-05-22T01:17:09.355Z,99076.59
2023-05-22T01:22:21.629Z,99079.28
2023-05-22T01:27:42.190Z,99073.56
2023-05-22T01:32:48.011Z,99080.84
2023-05-22T01:37:51.743Z,99086.25
2023-05-22T01:42:54.485Z,99090.00
2023-05-22T01:47:58.587Z,99090.47
2023-05-22T01:53:08.997Z,99084.50
2023-05-22T01:58:18.417Z,99085.81
2023-05-22T02:03:24.287Z,99079.81
2023-05-22T02:08:27.579Z,99071.94
2023-05-22T02:13:30.548Z,99075.13
2023-05-22T02:18:34.594Z,99070.78
2023-05-22T02:23:37.878Z,99077.22
2023-05-22T02:28:42.869Z,99077.72
2023-05-22T02:33:47.051Z,99067.34
2023-05-22T02:38:50.003Z,99061.38
2023-05-22T02:43:52.966Z,99053.25
2023-05-22T02:48:57.035Z,99052.69
2023-05-22T02:53:59.777Z,99042.13
2023-05-22T02:59:03.096Z,99036.34
2023-05-22T03:04:07.565Z,99034.72
2023-05-22T03:09:10.518Z,99036.34
2023-05-22T03:14:13.228Z,99036.84
2023-05-22T03:19:17.862Z,99036.03
2023-05-22T03:24:20.955Z,99026.53
2023-05-22T03:29:23.761Z,99037.31
2023-05-22T03:34:29.960Z,99027.59
2023-05-22T03:39:32.812Z,99033.22
2023-05-22T03:44:41.569Z,99036.13
2023-05-22T03:49:45.818Z,99037.22
2023-05-22T03:54:48.560Z,99048.00
2023-05-22T03:59:51.368Z,99054.47
2023-05-22T04:04:55.417Z,99053.63
2023-05-22T04:09:59.506Z,99057.19
2023-05-22T04:15:02.213Z,99058.22
2023-05-22T04:20:08.936Z,99064.44
2023-05-22T04:25:11.614Z,99067.72
2023-05-22T04:30:16.938Z,99070.41
2023-05-22T04:35:20.937Z,99078.31
2023-05-22T04:40:23.756Z,99086.50
2023-05-22T04:45:26.520Z,99077.59
2023-05-22T04:50:32.505Z,99086.16
2023-05-22T04:55:35.328Z,99076.63
2023-05-22T05:00:38.327Z,99071.72
2023-05-22T05:05:42.561Z,99064.88
2023-05-22T05:10:45.435Z,99065.78
2023-05-22T05:15:48.215Z,99068.03
2023-05-22T05:20:52.331Z,99072.97
2023-05-22T05:25:55.026Z,99080.47
2023-05-22T05:30:58.582Z,99086.16
2023-05-22T05:36:14.008Z,99093.44
2023-05-22T05:41:16.968Z,99093.28
2023-05-22T05:46:21.400Z,99094.59
2023-05-22T05:51:25.515Z,99101.06
2023-05-22T05:56:29.405Z,99110.19
2023-05-22T06:01:35.775Z,99110.47
2023-05-22T06:06:42.368Z,99117.50
2023-05-22T06:11:50.966Z,99112.09
2023-05-22T06:16:54.124Z,99119.59
2023-05-22T06:21:58.550Z,99113.75
2023-05-22T06:27:01.498Z,99125.59
2023-05-22T06:32:05.864Z,99126.19
2023-05-22T06:37:10.184Z,99131.00
2023-05-22T06:42:17.833Z,99131.81
2023-05-22T06:47:56.012Z,99131.81
2023-05-22T06:53:00.591Z,99133.81
2023-05-22T06:58:03.722Z,99134.88
2023-05-22T07:03:07.805Z,99142.59
2023-05-22T07:08:26.482Z,99149.19
2023-05-22T07:13:32.066Z,99147.56
2023-05-22T07:18:34.997Z,99144.53
2023-05-22T07:23:39.128Z,99144.28
2023-05-22T07:28:42.691Z,99142.06
2023-05-22T07:33:49.716Z,99142.88
2023-05-22T07:38:54.390Z,99151.94
2023-05-22T07:43:57.440Z,99154.06
2023-05-22T07:49:04.875Z,99163.66
2023-05-22T07:54:10.029Z,99176.13
2023-05-22T07:59:19.420Z,99174.00
2023-05-22T08:04:22.132Z,99169.66
2023-05-22T08:09:26.480Z,99173.19
2023-05-22T08:14:29.413Z,99179.41
2023-05-22T08:19:32.455Z,99178.34
2023-05-22T08:24:36.627Z,99174.84
2023-05-22T08:29:39.387Z,99184.81
2023-05-22T08:34:42.096Z,99193.50
2023-05-22T08:39:46.346Z,99191.88
2023-05-22T08:44:49.958Z,99189.75
2023-05-22T08:49:54.790Z,99188.09
2023-05-22T08:54:59.008Z,99192.47
2023-05-22T09:00:01.992Z,99195.97
2023-05-22T09:05:05.887Z,99194.09
2023-05-22T09:10:10.711Z,99199.50
2023-05-22T09:15:16.272Z,99200.31
2023-05-22T09:20:19.157Z,99204.69
2023-05-22T09:25:23.270Z,99207.13
2023-05-22T09:30:26.214Z,99201.72
2023-05-22T09:35:28.843Z,99201.72
2023-05-22T09:40:35.326Z,99211.25
2023-05-22T09:45:39.238Z,99203.94
2023-05-22T09:50:41.942Z,99207.47
2023-05-22T09:55:47.605Z,99206.66
2023-05-22T10:00:51.193Z,99205.63
2023-05-22T10:05:56.168Z,99205.34
2023-05-22T10:11:00.203Z,99208.88
2023-05-22T10:16:04.524Z,99218.66
2023-05-22T10:21:07.390Z,99218.66
2023-05-22T10:26:12.227Z,99214.88
2023-05-22T10:31:19.831Z,99214.41
2023-05-22T10:36:51.443Z,99210.06
2023-05-22T10:41:56.192Z,99208.53
2023-05-22T10:46:58.869Z,99204.19
2023-05-22T10:52:01.526Z,99200.19
2023-05-22T10:57:13.131Z,99193.50
2023-05-22T11:02:21.251Z,99195.97
2023-05-22T11:07:24.000Z,99194.91
2023-05-22T11:12:29.608Z,99198.41
2023-05-22T11:17:41.013Z,99201.72
2023-05-22T11:22:44.884Z,99185.50
2023-05-22T11:27:49.968Z,99194.19
2023-05-22T11:32:53.018Z,99191.00
2023-05-22T11:37:56.919Z,99186.69
2023-05-22T11:43:00.938Z,99183.25
2023-05-22T11:48:03.787Z,99178.91
2023-05-22T11:53:06.483Z,99168.31
2023-05-22T11:58:10.702Z,99168.09
2023-05-22T12:03:13.722Z,99163.28
2023-05-22T12:08:16.429Z,99161.97
2023-05-22T12:13:29.060Z,99157.16
2023-05-22T12:18:37.259Z,99150.69
2023-05-22T12:23:49.108Z,99146.69
2023-05-22T12:28:55.467Z,99145.38
2023-05-22T12:33:58.777Z,99146.78
2023-05-22T12:39:01.521Z,99153.81
2023-05-22T12:44:05.710Z,99146.56
2023-05-22T12:49:08.557Z,99159.59
2023-05-22T12:54:11.308Z,99154.78
2023-05-22T12:59:15.309Z,99151.00
2023-05-22T13:04:18.098Z,99151.59
2023-05-22T13:09:21.530Z,99148.63
2023-05-22T13:14:25.606Z,99153.81
2023-05-22T13:19:28.261Z,99158.16
2023-05-22T13:24:30.969Z,99150.63
2023-05-22T13:29:35.083Z,99160.94
2023-05-22T13:34:37.956Z,99150.13
2023-05-22T13:39:40.963Z,99146.41
2023-05-22T13:44:45.051Z,99133.44
2023-05-22T13:49:47.671Z,99137.56
2023-05-22T13:54:50.346Z,99135.44
2023-05-22T13:59:54.420Z,99139.22
2023-05-22T14:04:57.070Z,99141.22
2023-05-22T14:10:01.203Z,99145.31
2023-05-22T14:15:06.685Z,99139.06
2023-05-22T14:20:10.229Z,99147.75
2023-05-22T14:25:12.922Z,99146.69
2023-05-22T14:30:17.198Z,99140.22
2023-05-22T14:35:19.960Z,99149.97
2023-05-22T14:40:22.605Z,99140.56
2023-05-22T14:45:26.650Z,99128.44
2023-05-22T14:50:29.307Z,99128.19
2023-05-22T14:55:31.930Z,99123.84
2023-05-22T15:00:35.977Z,99119.25
2023-05-22T15:05:38.823Z,99117.38
2023-05-22T15:10:41.792Z,99106.28
2023-05-22T15:15:45.764Z,99111.47
2023-05-22T15:20:48.426Z,99106.66
2023-05-22T15:25:51.084Z,99092.03
2023-05-22T15:30:55.124Z,99096.41
2023-05-22T15:35:57.919Z,99100.75
2023-05-22T15:41:00.599Z,99080.19
2023-05-22T15:46:04.620Z,99086.97
2023-05-22T15:51:09.551Z,99084.00
2023-05-22T15:56:12.281Z,99091.91
2023-05-22T16:01:16.335Z,99093.53
2023-05-22T16:06:19.094Z,99099.75
2023-05-22T16:11:22.672Z,99096.81
2023-05-22T16:16:27.445Z,99102.00
2023-05-22T16:21:30.237Z,99105.25
2023-05-22T16:26:32.866Z,99104.22
2023-05-22T16:31:36.945Z,99105.03
2023-05-22T16:36:39.652Z,99107.47
2023-05-22T16:41:42.394Z,99112.88
2023-05-22T16:46:46.428Z,99123.25
2023-05-22T16:51:49.095Z,99108.88
2023-05-22T16:56:51.760Z,99109.44
2023-05-22T17:01:55.782Z,99116.53
2023-05-22T17:06:58.425Z,99114.38
2023-05-22T17:12:01.910Z,99119.78
2023-05-22T17:17:06.400Z,99127.66
2023-05-22T17:22:09.064Z,99127.66
2023-05-22T17:27:12.781Z,99129.28
2023-05-22T17:32:22.088Z,99123.66
2023-05-22T17:37:24.879Z,99124.47
2023-05-22T17:42:27.653Z,99138.66
2023-05-22T17:47:31.718Z,99150.06
2023-05-22T17:52:34.429Z,99157.38
2023-05-22T17:57:37.373Z,99147.09
2023-05-22T18:02:41.740Z,99152.28
2023-05-22T18:07:44.580Z,99161.00
2023-05-22T18:12:47.229Z,99172.75
2023-05-22T18:17:51.303Z,99181.19
2023-05-22T18:22:54.043Z,99194.00
2023-05-22T18:27:56.683Z,99196.00
2023-05-22T18:33:00.804Z,99212.56
2023-05-22T18:38:03.814Z,99211.56
2023-05-22T18:43:06.474Z,99202.72
2023-05-22T18:48:10.960Z,99223.16
2023-05-22T18:53:13.799Z,99230.78
2023-05-22T18:58:16.495Z,99231.94
2023-05-22T19:03:20.652Z,99236.28
2023-05-22T19:08:24.825Z,99243.69
2023-05-22T19:13:27.557Z,99246.97
2023-05-22T19:18:31.705Z,99253.78
2023-05-22T19:23:51.922Z,99260.03
2023-05-22T19:28:59.113Z,99268.16
2023-05-22T19:34:03.301Z,99266.25
2023-05-22T19:39:06.281Z,99274.66
2023-05-22T19:44:08.973Z,99272.41
2023-05-22T19:49:13.212Z,99279.97
2023-05-22T19:54:16.304Z,99293.19
2023-05-22T19:59:18.920Z,99299.09
2023-05-22T20:04:23.163Z,99304.19
2023-05-22T20:09:26.867Z,99311.75
2023-05-22T20:14:29.634Z,99322.81
2023-05-22T20:19:34.661Z,99320.50
2023-05-22T20:24:37.528Z,99323.69
2023-05-22T20:29:40.197Z,99325.00
2023-05-22T20:34:45.344Z,99321.72
2023-05-22T20:39:48.084Z,99324.31
2023-05-22T20:44:52.508Z,99326.47
2023-05-22T20:49:56.604Z,99324.22
2023-05-22T20:54:59.429Z,99327.19
2023-05-22T21:00:02.278Z,99333.09
2023-05-22T21:05:06.979Z,99343.34
2023-05-22T21:10:10.680Z,99329.19
2023-05-22T21:15:13.356Z,99322.03
2023-05-22T21:20:17.533Z,99320.63
2023-05-22T21:25:20.635Z,99327.34
2023-05-22T21:30:23.310Z,99331.59
2023-05-22T21:35:27.340Z,99331.50
2023-05-22T21:40:30.058Z,99334.69
2023-05-22T21:45:32.768Z,99340.56
2023-05-22T21:50:36.786Z,99334.56
2023-05-22T21:55:39.546Z,99343.19
2023-05-22T22:00:42.331Z,99350.72
2023-05-22T22:05:46.422Z,99348.47
2023-05-22T22:10:49.161Z,99351.41
2023-05-22T22:15:53.343Z,99362.72
2023-05-22T22:20:58.302Z,99355.09
2023-05-22T22:26:01.005Z,99352.59
2023-05-22T22:31:03.751Z,99363.91
2023-05-22T22:36:08.768Z,99371.69
2023-05-22T22:41:11.494Z,99376.72
2023-05-22T22:46:14.552Z,99384.28
2023-05-22T22:51:19.133Z,99388.03
2023-05-22T22:56:21.864Z,99393.91
2023-05-22T23:01:24.917Z,99395.47
2023-05-22T23:06:29.696Z,99395.56
2023-05-22T23:11:37.392Z,99402.63
2023-05-22T23:16:41.737Z,99411.19
2023-05-22T23:21:45.905Z,99412.47
2023-05-22T23:26:48.619Z,99414.34
2023-05-22T23:31:51.439Z,99410.44
2023-05-22T23:36:55.600Z,99409.28
2023-05-22T23:42:01.951Z,99412.81
2023-05-22T23:47:05.373Z,99412.22
2023-05-22T23:52:09.453Z,99412.22
2023-05-22T23:57:12.106Z,99396.59
